Disclaimer

Please do not use the information listed here in-flight or in-navigation, as they are not provided to us by the airports but are provided by volunteers, so they might be outdated.

Search


Regions


Airport information page

No radio frequency information is available.

Airport informations:
Latitude: 45° 43' 45.29" N
Longitude: 000° 13' 17.24" E
Elevation: 436 feet - 133 meters
Operating hours: Remarks
Operating agency: Civil government, landing fees and diplomatic clearance may be required
Timezone: UTC+1(+2DT) - Last Sunday in March to last Sunday in October
Fuel: Jet A1, without icing nhibitor.

100/130 MIL Spec, low lead, aviation gasoline (BLUE)

Runway information:
10/28 - 5938 x 148 feet< - >1810 x 45 meters

Recent METARs:
LFBU 210300Z AUTO 10003KT 7000 NSC M02/M03 Q1007
LFBU 210330Z AUTO 09002KT 6000 NSC M02/M03 Q1008
LFBU 210400Z AUTO 10002KT 7000 NCD M03/M04 Q1008

Airport on the map: